sensor_id;sensor_type;location;lat;lon;timestamp;pressure;altitude;pressure_sealevel;temperature;humidity
36600;BME280;35385;55.668;37.508;2022-09-09T00:00:26;100012.06;;;8.09;70.26
36600;BME280;35385;55.668;37.508;2022-09-09T00:02:33;100014.00;;;8.07;69.98
36600;BME280;35385;55.668;37.508;2022-09-09T00:03:44;100015.06;;;8.05;70.03
36600;BME280;35385;55.668;37.508;2022-09-09T00:04:59;100015.75;;;7.94;69.74
36600;BME280;35385;55.668;37.508;2022-09-09T00:08:08;100014.66;;;7.84;70.36
36600;BME280;35385;55.668;37.508;2022-09-09T00:09:12;100011.06;;;7.85;70.19
36600;BME280;35385;55.668;37.508;2022-09-09T00:11:24;100017.97;;;7.88;70.35
36600;BME280;35385;55.668;37.508;2022-09-09T00:13:44;100014.28;;;7.90;70.40
36600;BME280;35385;55.668;37.508;2022-09-09T00:15:07;100018.31;;;7.96;70.93
36600;BME280;35385;55.668;37.508;2022-09-09T00:16:32;100013.84;;;7.96;70.70
36600;BME280;35385;55.668;37.508;2022-09-09T00:17:36;100016.50;;;7.96;70.31
36600;BME280;35385;55.668;37.508;2022-09-09T00:21:33;100025.81;;;8.03;70.27
36600;BME280;35385;55.668;37.508;2022-09-09T00:22:35;100023.25;;;8.02;70.28
36600;BME280;35385;55.668;37.508;2022-09-09T00:23:40;100021.72;;;7.98;70.11
36600;BME280;35385;55.668;37.508;2022-09-09T00:24:53;100020.69;;;8.00;70.18
36600;BME280;35385;55.668;37.508;2022-09-09T00:27:01;100022.38;;;8.01;70.30
36600;BME280;35385;55.668;37.508;2022-09-09T00:28:08;100021.44;;;8.02;69.94
36600;BME280;35385;55.668;37.508;2022-09-09T00:29:36;100024.09;;;8.02;69.88
36600;BME280;35385;55.668;37.508;2022-09-09T00:30:35;100024.38;;;7.98;70.16
36600;BME280;35385;55.668;37.508;2022-09-09T00:31:37;100022.59;;;7.98;70.01
36600;BME280;35385;55.668;37.508;2022-09-09T00:32:38;100023.44;;;7.99;69.86
36600;BME280;35385;55.668;37.508;2022-09-09T00:33:39;100025.34;;;7.97;70.01
36600;BME280;35385;55.668;37.508;2022-09-09T00:35:27;100024.50;;;7.96;70.03
36600;BME280;35385;55.668;37.508;2022-09-09T00:36:01;100022.06;;;7.93;70.38
36600;BME280;35385;55.668;37.508;2022-09-09T00:37:03;100023.00;;;7.92;69.85
36600;BME280;35385;55.668;37.508;2022-09-09T00:38:14;100021.19;;;7.93;70.50
36600;BME280;35385;55.668;37.508;2022-09-09T00:40:35;100029.06;;;7.94;70.19
36600;BME280;35385;55.668;37.508;2022-09-09T00:42:43;100035.94;;;7.84;70.49
36600;BME280;35385;55.668;37.508;2022-09-09T00:43:46;100032.75;;;7.79;70.59
36600;BME280;35385;55.668;37.508;2022-09-09T00:46:59;100031.44;;;7.72;70.69
36600;BME280;35385;55.668;37.508;2022-09-09T00:48:10;100040.16;;;7.74;70.85
36600;BME280;35385;55.668;37.508;2022-09-09T00:55:25;100036.84;;;7.70;70.79
36600;BME280;35385;55.668;37.508;2022-09-09T00:56:30;100039.59;;;7.69;70.63
36600;BME280;35385;55.668;37.508;2022-09-09T00:57:35;100043.00;;;7.71;70.91
36600;BME280;35385;55.668;37.508;2022-09-09T00:58:35;100046.06;;;7.65;71.12
36600;BME280;35385;55.668;37.508;2022-09-09T01:01:45;100045.09;;;7.66;71.32
36600;BME280;35385;55.668;37.508;2022-09-09T01:04:07;100048.22;;;7.72;71.39
36600;BME280;35385;55.668;37.508;2022-09-09T01:05:12;100049.94;;;7.73;71.62
36600;BME280;35385;55.668;37.508;2022-09-09T01:07:17;100052.69;;;7.72;71.49
36600;BME280;35385;55.668;37.508;2022-09-09T01:09:38;100058.03;;;7.72;71.69
36600;BME280;35385;55.668;37.508;2022-09-09T01:10:51;100051.00;;;7.71;71.55
36600;BME280;35385;55.668;37.508;2022-09-09T01:12:01;100049.09;;;7.73;71.36
36600;BME280;35385;55.668;37.508;2022-09-09T01:13:04;100061.16;;;7.78;71.41
36600;BME280;35385;55.668;37.508;2022-09-09T01:14:14;100052.19;;;7.79;71.92
36600;BME280;35385;55.668;37.508;2022-09-09T01:15:25;100048.91;;;7.76;71.57
36600;BME280;35385;55.668;37.508;2022-09-09T01:16:26;100057.72;;;7.76;71.80
36600;BME280;35385;55.668;37.508;2022-09-09T01:17:34;100056.78;;;7.77;71.69
36600;BME280;35385;55.668;37.508;2022-09-09T01:18:36;100054.22;;;7.76;71.53
36600;BME280;35385;55.668;37.508;2022-09-09T01:21:50;100057.16;;;7.71;71.67
36600;BME280;35385;55.668;37.508;2022-09-09T01:23:10;100059.63;;;7.74;71.44
36600;BME280;35385;55.668;37.508;2022-09-09T01:24:26;100059.72;;;7.73;71.44
36600;BME280;35385;55.668;37.508;2022-09-09T01:26:43;100060.88;;;7.69;71.58
36600;BME280;35385;55.668;37.508;2022-09-09T01:27:44;100062.56;;;7.70;72.08
36600;BME280;35385;55.668;37.508;2022-09-09T01:28:48;100056.50;;;7.68;71.72
36600;BME280;35385;55.668;37.508;2022-09-09T01:29:49;100066.19;;;7.69;71.75
36600;BME280;35385;55.668;37.508;2022-09-09T01:30:50;100060.97;;;7.67;71.72
36600;BME280;35385;55.668;37.508;2022-09-09T01:32:00;100062.56;;;7.70;71.71
36600;BME280;35385;55.668;37.508;2022-09-09T01:33:01;100067.69;;;7.73;71.96
36600;BME280;35385;55.668;37.508;2022-09-09T01:34:07;100068.56;;;7.73;71.39
36600;BME280;35385;55.668;37.508;2022-09-09T01:36:29;100066.94;;;7.71;71.27
36600;BME280;35385;55.668;37.508;2022-09-09T01:37:33;100067.13;;;7.68;71.65
36600;BME280;35385;55.668;37.508;2022-09-09T01:38:34;100062.66;;;7.68;71.38
36600;BME280;35385;55.668;37.508;2022-09-09T01:39:35;100070.97;;;7.64;71.86
36600;BME280;35385;55.668;37.508;2022-09-09T01:40:37;100067.53;;;7.62;72.25
36600;BME280;35385;55.668;37.508;2022-09-09T01:41:38;100073.06;;;7.59;72.04
36600;BME280;35385;55.668;37.508;2022-09-09T01:42:38;100073.06;;;7.59;72.24
36600;BME280;35385;55.668;37.508;2022-09-09T01:43:38;100068.88;;;7.55;72.31
36600;BME280;35385;55.668;37.508;2022-09-09T01:44:39;100075.91;;;7.56;72.28
36600;BME280;35385;55.668;37.508;2022-09-09T01:45:39;100074.00;;;7.58;72.33
36600;BME280;35385;55.668;37.508;2022-09-09T01:46:41;100078.38;;;7.59;72.31
36600;BME280;35385;55.668;37.508;2022-09-09T01:47:41;100078.38;;;7.59;72.45
36600;BME280;35385;55.668;37.508;2022-09-09T01:48:42;100080.06;;;7.60;72.77
36600;BME280;35385;55.668;37.508;2022-09-09T01:49:43;100074.19;;;7.55;72.21
36600;BME280;35385;55.668;37.508;2022-09-09T01:50:43;100074.09;;;7.56;72.11
36600;BME280;35385;55.668;37.508;2022-09-09T01:51:43;100075.91;;;7.56;72.56
36600;BME280;35385;55.668;37.508;2022-09-09T01:52:46;100081.97;;;7.58;72.89
36600;BME280;35385;55.668;37.508;2022-09-09T01:53:48;100079.13;;;7.61;72.43
36600;BME280;35385;55.668;37.508;2022-09-09T01:54:48;100078.19;;;7.62;72.66
36600;BME280;35385;55.668;37.508;2022-09-09T01:55:55;100083.50;;;7.62;72.55
36600;BME280;35385;55.668;37.508;2022-09-09T01:59:49;100077.41;;;7.60;72.65
36600;BME280;35385;55.668;37.508;2022-09-09T02:00:54;100079.41;;;7.56;72.89
36600;BME280;35385;55.668;37.508;2022-09-09T02:03:58;100083.31;;;7.51;73.38
36600;BME280;35385;55.668;37.508;2022-09-09T02:06:19;100088.44;;;7.54;73.21
36600;BME280;35385;55.668;37.508;2022-09-09T02:07:38;100092.13;;;7.51;73.88
36600;BME280;35385;55.668;37.508;2022-09-09T02:08:43;100093.19;;;7.49;73.35
36600;BME280;35385;55.668;37.508;2022-09-09T02:09:47;100089.78;;;7.47;73.19
36600;BME280;35385;55.668;37.508;2022-09-09T02:11:00;100089.31;;;7.40;73.96
36600;BME280;35385;55.668;37.508;2022-09-09T02:12:04;100087.91;;;7.34;73.58
36600;BME280;35385;55.668;37.508;2022-09-09T02:13:09;100093.09;;;7.36;73.70
36600;BME280;35385;55.668;37.508;2022-09-09T02:14:12;100089.78;;;7.32;74.07
36600;BME280;35385;55.668;37.508;2022-09-09T02:15:20;100092.44;;;7.32;74.28
36600;BME280;35385;55.668;37.508;2022-09-09T02:16:38;100096.06;;;7.31;74.69
36600;BME280;35385;55.668;37.508;2022-09-09T02:17:40;100089.88;;;7.31;74.04
36600;BME280;35385;55.668;37.508;2022-09-09T02:19:46;100096.91;;;7.32;74.36
36600;BME280;35385;55.668;37.508;2022-09-09T02:20:48;100094.16;;;7.33;75.19
36600;BME280;35385;55.668;37.508;2022-09-09T02:21:50;100095.13;;;7.32;74.96
36600;BME280;35385;55.668;37.508;2022-09-09T02:22:53;100099.66;;;7.30;74.99
36600;BME280;35385;55.668;37.508;2022-09-09T02:23:54;100100.53;;;7.31;74.94
36600;BME280;35385;55.668;37.508;2022-09-09T02:24:57;100100.44;;;7.32;75.08
36600;BME280;35385;55.668;37.508;2022-09-09T02:25:59;100095.19;;;7.31;75.32
36600;BME280;35385;55.668;37.508;2022-09-09T02:27:00;100098.91;;;7.28;74.91
36600;BME280;35385;55.668;37.508;2022-09-09T02:28:03;100100.88;;;7.25;75.42
36600;BME280;35385;55.668;37.508;2022-09-09T02:30:27;100106.97;;;7.27;74.93
36600;BME280;35385;55.668;37.508;2022-09-09T02:31:29;100107.06;;;7.25;75.26
36600;BME280;35385;55.668;37.508;2022-09-09T02:32:30;100110.88;;;7.21;75.33
36600;BME280;35385;55.668;37.508;2022-09-09T02:33:42;100106.78;;;7.16;75.31
36600;BME280;35385;55.668;37.508;2022-09-09T02:34:47;100108.31;;;7.20;75.03
36600;BME280;35385;55.668;37.508;2022-09-09T02:35:49;100104.72;;;7.21;75.03
36600;BME280;35385;55.668;37.508;2022-09-09T02:36:50;100103.63;;;7.23;75.12
36600;BME280;35385;55.668;37.508;2022-09-09T02:37:54;100107.91;;;7.26;75.72
36600;BME280;35385;55.668;37.508;2022-09-09T02:38:57;100116.06;;;7.23;74.76
36600;BME280;35385;55.668;37.508;2022-09-09T02:39:57;100112.38;;;7.25;75.23
36600;BME280;35385;55.668;37.508;2022-09-09T02:40:57;100115.78;;;7.27;75.24
36600;BME280;35385;55.668;37.508;2022-09-09T02:41:58;100112.09;;;7.30;74.79
36600;BME280;35385;55.668;37.508;2022-09-09T02:42:59;100108.41;;;7.32;74.64
36600;BME280;35385;55.668;37.508;2022-09-09T02:44:00;100114.25;;;7.37;75.04
36600;BME280;35385;55.668;37.508;2022-09-09T02:45:00;100112.00;;;7.31;75.18
36600;BME280;35385;55.668;37.508;2022-09-09T02:46:03;100114.06;;;7.26;75.09
36600;BME280;35385;55.668;37.508;2022-09-09T02:48:36;100113.97;;;7.14;75.55
36600;BME280;35385;55.668;37.508;2022-09-09T02:54:14;100116.72;;;7.12;75.43
36600;BME280;35385;55.668;37.508;2022-09-09T02:55:19;100125.66;;;7.11;74.93
36600;BME280;35385;55.668;37.508;2022-09-09T02:56:21;100124.78;;;7.10;75.19
36600;BME280;35385;55.668;37.508;2022-09-09T02:57:28;100136.66;;;7.05;75.26
36600;BME280;35385;55.668;37.508;2022-09-09T02:58:30;100129.72;;;7.02;75.59
36600;BME280;35385;55.668;37.508;2022-09-09T02:59:30;100126.41;;;6.99;75.90
36600;BME280;35385;55.668;37.508;2022-09-09T03:00:31;100135.50;;;6.95;75.98
36600;BME280;35385;55.668;37.508;2022-09-09T03:01:32;100134.00;;;6.91;75.79
36600;BME280;35385;55.668;37.508;2022-09-09T03:02:33;100131.25;;;6.92;76.23
36600;BME280;35385;55.668;37.508;2022-09-09T03:03:33;100136.34;;;6.95;75.94
36600;BME280;35385;55.668;37.508;2022-09-09T03:04:33;100131.03;;;6.95;76.29
36600;BME280;35385;55.668;37.508;2022-09-09T03:05:34;100129.31;;;6.94;76.06
36600;BME280;35385;55.668;37.508;2022-09-09T03:06:35;100130.25;;;6.93;76.30
36600;BME280;35385;55.668;37.508;2022-09-09T03:07:36;100132.06;;;6.93;76.20
36600;BME280;35385;55.668;37.508;2022-09-09T03:08:36;100130.47;;;6.90;76.28
36600;BME280;35385;55.668;37.508;2022-09-09T03:09:36;100132.44;;;6.87;76.57
36600;BME280;35385;55.668;37.508;2022-09-09T03:10:36;100129.22;;;6.82;75.75
36600;BME280;35385;55.668;37.508;2022-09-09T03:11:37;100129.59;;;6.76;76.57
36600;BME280;35385;55.668;37.508;2022-09-09T03:12:38;100145.59;;;6.74;76.60
36600;BME280;35385;55.668;37.508;2022-09-09T03:13:39;100138.66;;;6.71;76.33
36600;BME280;35385;55.668;37.508;2022-09-09T03:14:39;100147.75;;;6.67;76.98
36600;BME280;35385;55.668;37.508;2022-09-09T03:15:39;100139.03;;;6.65;77.66
36600;BME280;35385;55.668;37.508;2022-09-09T03:16:40;100141.88;;;6.62;77.48
36600;BME280;35385;55.668;37.508;2022-09-09T03:17:40;100135.63;;;6.63;77.33
36600;BME280;35385;55.668;37.508;2022-09-09T03:18:41;100137.31;;;6.64;77.35
36600;BME280;35385;55.668;37.508;2022-09-09T03:19:42;100140.81;;;6.65;77.35
36600;BME280;35385;55.668;37.508;2022-09-09T03:20:44;100137.31;;;6.64;77.60
36600;BME280;35385;55.668;37.508;2022-09-09T03:21:46;100141.69;;;6.65;77.66
36600;BME280;35385;55.668;37.508;2022-09-09T03:22:47;100135.41;;;6.66;78.15
36600;BME280;35385;55.668;37.508;2022-09-09T03:23:47;100145.88;;;6.69;78.09
36600;BME280;35385;55.668;37.508;2022-09-09T03:24:48;100140.38;;;6.72;77.45
36600;BME280;35385;55.668;37.508;2022-09-09T03:25:48;100145.59;;;6.74;77.60
36600;BME280;35385;55.668;37.508;2022-09-09T03:26:49;100145.69;;;6.72;77.63
36600;BME280;35385;55.668;37.508;2022-09-09T03:27:50;100140.38;;;6.72;77.78
36600;BME280;35385;55.668;37.508;2022-09-09T03:28:54;100143.81;;;6.74;77.47
36600;BME280;35385;55.668;37.508;2022-09-09T03:29:54;100140.22;;;6.76;77.00
36600;BME280;35385;55.668;37.508;2022-09-09T03:30:58;100138.59;;;6.73;77.20
36600;BME280;35385;55.668;37.508;2022-09-09T03:31:58;100135.94;;;6.73;77.66
36600;BME280;35385;55.668;37.508;2022-09-09T03:32:59;100147.41;;;6.73;77.55
36600;BME280;35385;55.668;37.508;2022-09-09T03:33:59;100150.16;;;6.72;77.26
36600;BME280;35385;55.668;37.508;2022-09-09T03:34:59;100145.38;;;6.63;77.39
36600;BME280;35385;55.668;37.508;2022-09-09T03:36:00;100155.50;;;6.56;77.76
36600;BME280;35385;55.668;37.508;2022-09-09T03:37:00;100145.75;;;6.57;77.76
36600;BME280;35385;55.668;37.508;2022-09-09T03:38:01;100153.63;;;6.58;77.99
36600;BME280;35385;55.668;37.508;2022-09-09T03:39:01;100147.44;;;6.58;77.69
36600;BME280;35385;55.668;37.508;2022-09-09T03:40:03;100148.13;;;6.61;78.04
36600;BME280;35385;55.668;37.508;2022-09-09T03:41:04;100155.25;;;6.61;77.83
36600;BME280;35385;55.668;37.508;2022-09-09T03:42:07;100146.41;;;6.60;77.41
36600;BME280;35385;55.668;37.508;2022-09-09T03:43:08;100157.97;;;6.59;78.30
36600;BME280;35385;55.668;37.508;2022-09-09T03:44:09;100158.91;;;6.58;78.08
36600;BME280;35385;55.668;37.508;2022-09-09T03:45:10;100153.63;;;6.58;78.35
36600;BME280;35385;55.668;37.508;2022-09-09T03:46:10;100149.34;;;6.56;78.26
36600;BME280;35385;55.668;37.508;2022-09-09T03:47:11;100161.06;;;6.52;77.83
36600;BME280;35385;55.668;37.508;2022-09-09T03:48:11;100152.16;;;6.53;78.00
36600;BME280;35385;55.668;37.508;2022-09-09T03:49:11;100155.66;;;6.53;78.29
36600;BME280;35385;55.668;37.508;2022-09-09T03:50:12;100161.84;;;6.54;78.01
36600;BME280;35385;55.668;37.508;2022-09-09T03:51:13;100164.41;;;6.55;78.12
36600;BME280;35385;55.668;37.508;2022-09-09T03:52:14;100165.19;;;6.57;78.23
36600;BME280;35385;55.668;37.508;2022-09-09T03:53:15;100159.09;;;6.55;78.67
36600;BME280;35385;55.668;37.508;2022-09-09T03:54:15;100172.63;;;6.51;78.27
36600;BME280;35385;55.668;37.508;2022-09-09T03:55:16;100170.81;;;6.51;78.20
36600;BME280;35385;55.668;37.508;2022-09-09T03:56:16;100161.66;;;6.57;78.35
36600;BME280;35385;55.668;37.508;2022-09-09T03:57:16;100165.94;;;6.59;78.35
36600;BME280;35385;55.668;37.508;2022-09-09T03:58:17;100165.56;;;6.65;78.48
36600;BME280;35385;55.668;37.508;2022-09-09T03:59:20;100173.19;;;6.71;78.20
36600;BME280;35385;55.668;37.508;2022-09-09T04:00:21;100164.97;;;6.76;78.25
36600;BME280;35385;55.668;37.508;2022-09-09T04:01:21;100173.31;;;6.84;78.27
36600;BME280;35385;55.668;37.508;2022-09-09T04:02:22;100168.50;;;6.91;78.04
36600;BME280;35385;55.668;37.508;2022-09-09T04:03:23;100168.91;;;6.99;77.42
36600;BME280;35385;55.668;37.508;2022-09-09T04:04:24;100171.00;;;7.08;77.81
36600;BME280;35385;55.668;37.508;2022-09-09T04:05:26;100176.13;;;7.11;77.33
36600;BME280;35385;55.668;37.508;2022-09-09T04:06:27;100178.59;;;7.14;77.13
36600;BME280;35385;55.668;37.508;2022-09-09T04:07:27;100176.72;;;7.16;77.19
36600;BME280;35385;55.668;37.508;2022-09-09T04:08:28;100173.13;;;7.17;77.12
36600;BME280;35385;55.668;37.508;2022-09-09T04:09:30;100175.47;;;7.22;76.23
36600;BME280;35385;55.668;37.508;2022-09-09T04:10:30;100169.22;;;7.23;76.25
36600;BME280;35385;55.668;37.508;2022-09-09T04:11:31;100171.00;;;7.22;76.58
36600;BME280;35385;55.668;37.508;2022-09-09T04:12:31;100177.94;;;7.25;76.30
36600;BME280;35385;55.668;37.508;2022-09-09T04:13:33;100181.47;;;7.25;75.77
36600;BME280;35385;55.668;37.508;2022-09-09T04:14:34;100181.38;;;7.27;75.82
36600;BME280;35385;55.668;37.508;2022-09-09T04:15:34;100177.84;;;7.26;75.25
36600;BME280;35385;55.668;37.508;2022-09-09T04:16:35;100179.38;;;7.30;76.26
36600;BME280;35385;55.668;37.508;2022-09-09T04:17:37;100179.56;;;7.41;75.51
36600;BME280;35385;55.668;37.508;2022-09-09T04:18:37;100183.84;;;7.44;76.14
36600;BME280;35385;55.668;37.508;2022-09-09T04:19:38;100182.63;;;7.50;75.59
36600;BME280;35385;55.668;37.508;2022-09-09T04:20:38;100182.91;;;7.59;75.19
36600;BME280;35385;55.668;37.508;2022-09-09T04:21:39;100188.69;;;7.66;74.88
36600;BME280;35385;55.668;37.508;2022-09-09T04:22:40;100188.50;;;7.69;74.89
36600;BME280;35385;55.668;37.508;2022-09-09T04:23:40;100193.63;;;7.72;74.91
36600;BME280;35385;55.668;37.508;2022-09-09T04:24:41;100187.94;;;7.78;74.85
36600;BME280;35385;55.668;37.508;2022-09-09T04:25:47;100193.25;;;7.78;74.38
36600;BME280;35385;55.668;37.508;2022-09-09T04:26:48;100195.72;;;7.81;74.36
36600;BME280;35385;55.668;37.508;2022-09-09T04:27:52;100188.31;;;7.86;74.25
36600;BME280;35385;55.668;37.508;2022-09-09T04:28:53;100188.03;;;7.91;74.13
36600;BME280;35385;55.668;37.508;2022-09-09T04:29:53;100188.47;;;7.97;74.13
36600;BME280;35385;55.668;37.508;2022-09-09T04:30:53;100189.13;;;8.01;73.64
36600;BME280;35385;55.668;37.508;2022-09-09T04:31:54;100185.34;;;8.05;73.18
36600;BME280;35385;55.668;37.508;2022-09-09T04:32:54;100183.16;;;7.97;73.02
36600;BME280;35385;55.668;37.508;2022-09-09T04:33:55;100186.22;;;7.91;73.12
36600;BME280;35385;55.668;37.508;2022-09-09T04:34:55;100195.16;;;7.90;73.35
36600;BME280;35385;55.668;37.508;2022-09-09T04:35:55;100186.13;;;7.93;73.14
36600;BME280;35385;55.668;37.508;2022-09-09T04:36:56;100191.13;;;7.97;73.01
36600;BME280;35385;55.668;37.508;2022-09-09T04:37:56;100189.03;;;8.02;73.01
36600;BME280;35385;55.668;37.508;2022-09-09T04:38:57;100197.59;;;8.07;72.59
36600;BME280;35385;55.668;37.508;2022-09-09T04:39:57;100192.94;;;7.97;72.96
36600;BME280;35385;55.668;37.508;2022-09-09T04:41:03;100187.94;;;7.92;72.29
36600;BME280;35385;55.668;37.508;2022-09-09T04:42:04;100198.56;;;7.92;72.35
36600;BME280;35385;55.668;37.508;2022-09-09T04:43:04;100196.44;;;7.97;72.34
36600;BME280;35385;55.668;37.508;2022-09-09T04:44:05;100194.19;;;8.05;72.35
36600;BME280;35385;55.668;37.508;2022-09-09T04:45:06;100193.22;;;8.06;72.59
36600;BME280;35385;55.668;37.508;2022-09-09T04:46:11;100199.09;;;8.11;71.90
36600;BME280;35385;55.668;37.508;2022-09-09T04:47:12;100186.63;;;8.12;72.41
36600;BME280;35385;55.668;37.508;2022-09-09T04:48:13;100198.56;;;8.06;72.34
36600;BME280;35385;55.668;37.508;2022-09-09T04:49:13;100193.13;;;7.94;72.82
36600;BME280;35385;55.668;37.508;2022-09-09T04:50:14;100194.47;;;7.87;72.30
36600;BME280;35385;55.668;37.508;2022-09-09T04:51:14;100201.03;;;7.81;73.17
36600;BME280;35385;55.668;37.508;2022-09-09T04:52:15;100192.31;;;7.79;72.78
36600;BME280;35385;55.668;37.508;2022-09-09T04:53:17;100191.66;;;7.75;72.66
36600;BME280;35385;55.668;37.508;2022-09-09T04:54:17;100198.94;;;7.72;72.90
36600;BME280;35385;55.668;37.508;2022-09-09T04:55:18;100197.44;;;7.68;73.03
36600;BME280;35385;55.668;37.508;2022-09-09T04:56:18;100194.78;;;7.68;73.05
36600;BME280;35385;55.668;37.508;2022-09-09T04:57:19;100199.13;;;7.69;73.02
36600;BME280;35385;55.668;37.508;2022-09-09T04:58:19;100201.03;;;7.67;73.38
36600;BME280;35385;55.668;37.508;2022-09-09T04:59:21;100203.69;;;7.67;73.15
36600;BME280;35385;55.668;37.508;2022-09-09T05:00:22;100201.34;;;7.62;73.23
36600;BME280;35385;55.668;37.508;2022-09-09T05:01:22;100200.47;;;7.62;73.52
36600;BME280;35385;55.668;37.508;2022-09-09T05:02:24;100203.06;;;7.63;73.26
36600;BME280;35385;55.668;37.508;2022-09-09T05:03:24;100207.59;;;7.61;73.34
36600;BME280;35385;55.668;37.508;2022-09-09T05:04:24;100202.38;;;7.60;73.25
36600;BME280;35385;55.668;37.508;2022-09-09T05:05:25;100207.69;;;7.60;73.69
36600;BME280;35385;55.668;37.508;2022-09-09T05:06:25;100205.81;;;7.62;73.57
36600;BME280;35385;55.668;37.508;2022-09-09T05:07:26;100205.81;;;7.62;73.53
36600;BME280;35385;55.668;37.508;2022-09-09T05:08:27;100207.59;;;7.61;72.96
36600;BME280;35385;55.668;37.508;2022-09-09T05:09:27;100206.66;;;7.62;73.24
36600;BME280;35385;55.668;37.508;2022-09-09T05:10:28;100210.91;;;7.65;73.16
36600;BME280;35385;55.668;37.508;2022-09-09T05:11:29;100203.31;;;7.59;73.58
36600;BME280;35385;55.668;37.508;2022-09-09T05:12:30;100213.19;;;7.57;73.47
36600;BME280;35385;55.668;37.508;2022-09-09T05:13:31;100216.63;;;7.59;73.77
36600;BME280;35385;55.668;37.508;2022-09-09T05:14:32;100212.84;;;7.63;73.32
36600;BME280;35385;55.668;37.508;2022-09-09T05:15:32;100220.41;;;7.69;73.37
36600;BME280;35385;55.668;37.508;2022-09-09T05:16:32;100219.09;;;7.76;72.88
36600;BME280;35385;55.668;37.508;2022-09-09T05:17:33;100215.28;;;7.80;73.16
36600;BME280;35385;55.668;37.508;2022-09-09T05:18:33;100213.88;;;7.89;72.48
36600;BME280;35385;55.668;37.508;2022-09-09T05:19:34;100221.56;;;7.93;72.49
36600;BME280;35385;55.668;37.508;2022-09-09T05:20:34;100220.41;;;7.97;72.43
36600;BME280;35385;55.668;37.508;2022-09-09T05:21:34;100222.88;;;8.00;72.22
36600;BME280;35385;55.668;37.508;2022-09-09T05:22:35;100226.28;;;8.02;71.61
36600;BME280;35385;55.668;37.508;2022-09-09T05:23:35;100224.22;;;8.07;71.74
36600;BME280;35385;55.668;37.508;2022-09-09T05:24:36;100233.41;;;8.16;71.19
36600;BME280;35385;55.668;37.508;2022-09-09T05:25:36;100224.63;;;8.28;71.05
36600;BME280;35385;55.668;37.508;2022-09-09T05:26:37;100225.91;;;8.64;70.43
36600;BME280;35385;55.668;37.508;2022-09-09T05:27:37;100230.09;;;9.20;69.92
36600;BME280;35385;55.668;37.508;2022-09-09T05:28:37;100226.50;;;9.72;68.98
36600;BME280;35385;55.668;37.508;2022-09-09T05:29:38;100233.91;;;10.17;67.79
36600;BME280;35385;55.668;37.508;2022-09-09T05:30:38;100223.03;;;10.57;66.53
36600;BME280;35385;55.668;37.508;2022-09-09T05:31:39;100225.00;;;10.90;65.62
36600;BME280;35385;55.668;37.508;2022-09-09T05:32:39;100225.50;;;11.19;64.43
36600;BME280;35385;55.668;37.508;2022-09-09T05:33:41;100232.88;;;11.50;63.19
36600;BME280;35385;55.668;37.508;2022-09-09T05:34:43;100231.94;;;11.85;62.41
36600;BME280;35385;55.668;37.508;2022-09-09T05:35:43;100225.03;;;12.04;61.12
36600;BME280;35385;55.668;37.508;2022-09-09T05:36:43;100228.03;;;12.33;60.25
36600;BME280;35385;55.668;37.508;2022-09-09T05:37:44;100231.06;;;12.51;59.31
36600;BME280;35385;55.668;37.508;2022-09-09T05:38:46;100223.91;;;12.72;58.26
36600;BME280;35385;55.668;37.508;2022-09-09T05:39:46;100227.50;;;12.94;57.93
36600;BME280;35385;55.668;37.508;2022-09-09T05:40:47;100225.50;;;13.07;56.69
36600;BME280;35385;55.668;37.508;2022-09-09T05:41:48;100228.66;;;12.80;55.87
36600;BME280;35385;55.668;37.508;2022-09-09T05:42:48;100222.34;;;12.16;55.46
36600;BME280;35385;55.668;37.508;2022-09-09T05:43:48;100222.66;;;12.45;56.37
36600;BME280;35385;55.668;37.508;2022-09-09T05:44:49;100225.00;;;12.81;56.75
36600;BME280;35385;55.668;37.508;2022-09-09T05:47:10;100229.16;;;13.38;56.02
36600;BME280;35385;55.668;37.508;2022-09-09T05:48:10;100238.31;;;13.56;55.67
36600;BME280;35385;55.668;37.508;2022-09-09T05:49:10;100239.97;;;13.68;54.58
36600;BME280;35385;55.668;37.508;2022-09-09T05:50:11;100232.16;;;13.44;54.51
36600;BME280;35385;55.668;37.508;2022-09-09T05:51:14;100233.16;;;13.64;54.26
36600;BME280;35385;55.668;37.508;2022-09-09T05:52:17;100235.50;;;13.37;52.66
36600;BME280;35385;55.668;37.508;2022-09-09T05:53:18;100231.31;;;13.23;53.20
36600;BME280;35385;55.668;37.508;2022-09-09T05:54:18;100227.31;;;13.59;53.36
36600;BME280;35385;55.668;37.508;2022-09-09T05:55:18;100231.47;;;13.94;53.18
36600;BME280;35385;55.668;37.508;2022-09-09T05:56:23;100235.50;;;14.19;52.41
36600;BME280;35385;55.668;37.508;2022-09-09T05:57:25;100235.13;;;14.23;51.32
36600;BME280;35385;55.668;37.508;2022-09-09T05:58:25;100230.25;;;14.47;51.89
36600;BME280;35385;55.668;37.508;2022-09-09T05:59:25;100229.72;;;14.54;51.88
36600;BME280;35385;55.668;37.508;2022-09-09T06:00:26;100237.97;;;14.81;51.97
36600;BME280;35385;55.668;37.508;2022-09-09T06:01:28;100237.00;;;14.92;51.24
36600;BME280;35385;55.668;37.508;2022-09-09T06:02:28;100233.03;;;15.05;50.72
36600;BME280;35385;55.668;37.508;2022-09-09T06:03:29;100236.28;;;15.18;49.75
36600;BME280;35385;55.668;37.508;2022-09-09T06:04:29;100241.78;;;15.46;48.97
36600;BME280;35385;55.668;37.508;2022-09-09T06:05:30;100239.09;;;15.65;48.88
36600;BME280;35385;55.668;37.508;2022-09-09T06:06:31;100241.03;;;15.82;48.78
36600;BME280;35385;55.668;37.508;2022-09-09T06:07:36;100242.84;;;15.91;48.41
36600;BME280;35385;55.668;37.508;2022-09-09T06:08:38;100233.66;;;15.84;46.54
36600;BME280;35385;55.668;37.508;2022-09-09T06:09:38;100234.75;;;15.91;47.12
36600;BME280;35385;55.668;37.508;2022-09-09T06:10:39;100240.97;;;16.02;46.38
36600;BME280;35385;55.668;37.508;2022-09-09T06:11:39;100237.41;;;16.11;46.18